createdAt,value
2019-05-12T00:00:24.000Z,85.13
2019-05-12T00:01:24.000Z,85.52
2019-05-12T00:02:24.000Z,85.33
2019-05-12T00:03:24.000Z,85.39
2019-05-12T00:04:24.000Z,85.73
2019-05-12T00:05:24.000Z,85.44
2019-05-12T00:06:24.000Z,85.38
2019-05-12T00:07:24.000Z,85.62
2019-05-12T00:08:24.000Z,85.31
2019-05-12T00:09:24.000Z,85.21
2019-05-12T00:10:24.000Z,85.33
2019-05-12T00:11:24.000Z,85.41
2019-05-12T00:12:24.000Z,85.33
2019-05-12T00:13:24.000Z,85.32
2019-05-12T00:14:24.000Z,85.26
2019-05-12T00:15:24.000Z,85.36
2019-05-12T00:16:24.000Z,85.09
2019-05-12T00:17:24.000Z,85.44
2019-05-12T00:18:24.000Z,85.28
2019-05-12T00:19:24.000Z,85.58
2019-05-12T00:20:24.000Z,85.67
2019-05-12T00:21:24.000Z,85.72
2019-05-12T00:22:24.000Z,85.47
2019-05-12T00:23:24.000Z,85.44
2019-05-12T00:24:24.000Z,85.49
2019-05-12T00:25:24.000Z,85.36
2019-05-12T00:26:24.000Z,85.31
2019-05-12T00:27:24.000Z,85.36
2019-05-12T00:28:24.000Z,85.53
2019-05-12T00:29:24.000Z,85.22
2019-05-12T00:30:24.000Z,85.16
2019-05-12T00:31:24.000Z,85.19
2019-05-12T00:32:24.000Z,85.17
2019-05-12T00:33:24.000Z,85.19
2019-05-12T00:34:24.000Z,85.59
2019-05-12T00:35:24.000Z,85.70
2019-05-12T00:36:24.000Z,85.78
2019-05-12T00:37:24.000Z,85.95
2019-05-12T00:38:24.000Z,85.78
2019-05-12T00:39:24.000Z,85.57
2019-05-12T00:40:24.000Z,85.73
2019-05-12T00:41:24.000Z,85.64
2019-05-12T00:42:24.000Z,85.76
2019-05-12T00:43:24.000Z,85.63
2019-05-12T00:44:24.000Z,85.55
2019-05-12T00:45:24.000Z,85.63
2019-05-12T00:46:24.000Z,85.67
2019-05-12T00:47:24.000Z,85.46
2019-05-12T00:48:24.000Z,85.52
2019-05-12T00:49:24.000Z,85.65
2019-05-12T00:50:24.000Z,86.02
2019-05-12T00:51:24.000Z,86.07
2019-05-12T00:52:24.000Z,86.21
2019-05-12T00:53:24.000Z,86.22
2019-05-12T00:54:24.000Z,86.08
2019-05-12T00:55:24.000Z,86.21
2019-05-12T00:56:24.000Z,86.14
2019-05-12T00:57:24.000Z,86.01
2019-05-12T00:58:24.000Z,86.01
2019-05-12T00:59:24.000Z,86.12
2019-05-12T01:00:24.000Z,85.93
2019-05-12T01:01:24.000Z,86.07
2019-05-12T01:02:24.000Z,86.31
2019-05-12T01:03:24.000Z,86.21
2019-05-12T01:04:24.000Z,86.07
2019-05-12T01:05:24.000Z,85.90
2019-05-12T01:06:24.000Z,85.79
2019-05-12T01:07:24.000Z,85.84
2019-05-12T01:08:24.000Z,86.01
2019-05-12T01:09:24.000Z,86.09
2019-05-12T01:10:24.000Z,85.98
2019-05-12T01:11:24.000Z,86.18
2019-05-12T01:12:24.000Z,86.11
2019-05-12T01:13:24.000Z,86.15
2019-05-12T01:14:24.000Z,86.35
2019-05-12T01:15:24.000Z,86.19
2019-05-12T01:16:24.000Z,86.11
2019-05-12T01:17:24.000Z,86.35
2019-05-12T01:18:24.000Z,86.36
2019-05-12T01:19:24.000Z,86.58
2019-05-12T01:20:24.000Z,86.43
2019-05-12T01:21:24.000Z,86.64
2019-05-12T01:22:24.000Z,86.96
2019-05-12T01:23:24.000Z,86.87
2019-05-12T01:24:24.000Z,87.11
2019-05-12T01:25:24.000Z,86.80
2019-05-12T01:26:24.000Z,86.86
2019-05-12T01:27:24.000Z,86.90
2019-05-12T01:28:24.000Z,86.65
2019-05-12T01:29:24.000Z,86.56
2019-05-12T01:30:24.000Z,86.67
2019-05-12T01:31:24.000Z,86.41
2019-05-12T01:32:24.000Z,86.47
2019-05-12T01:33:24.000Z,86.38
2019-05-12T01:34:24.000Z,86.32
2019-05-12T01:35:24.000Z,86.14
2019-05-12T01:36:24.000Z,86.06
2019-05-12T01:37:24.000Z,85.98
2019-05-12T01:38:24.000Z,86.15
2019-05-12T01:39:24.000Z,86.07
2019-05-12T01:40:24.000Z,85.97
2019-05-12T01:41:24.000Z,85.96
2019-05-12T01:42:24.000Z,85.80
2019-05-12T01:43:24.000Z,85.76
2019-05-12T01:44:24.000Z,85.78
2019-05-12T01:45:24.000Z,85.84
2019-05-12T01:46:24.000Z,85.66
2019-05-12T01:47:24.000Z,85.62
2019-05-12T01:48:24.000Z,85.75
2019-05-12T01:49:24.000Z,85.69
2019-05-12T01:50:24.000Z,85.67
2019-05-12T01:51:24.000Z,85.62
2019-05-12T01:52:24.000Z,85.47
2019-05-12T01:53:24.000Z,85.57
2019-05-12T01:54:24.000Z,85.56
2019-05-12T01:55:24.000Z,85.58
2019-05-12T01:56:24.000Z,85.50
2019-05-12T01:57:24.000Z,85.54
2019-05-12T01:58:24.000Z,85.54
2019-05-12T01:59:24.000Z,85.47
2019-05-12T02:00:24.000Z,85.33
2019-05-12T02:01:24.000Z,85.07
2019-05-12T02:02:24.000Z,85.20
2019-05-12T02:03:24.000Z,85.21
2019-05-12T02:04:24.000Z,85.14
2019-05-12T02:05:24.000Z,85.11
2019-05-12T02:06:24.000Z,85.15
2019-05-12T02:07:24.000Z,85.08
2019-05-12T02:08:24.000Z,85.05
2019-05-12T02:09:24.000Z,84.94
2019-05-12T02:10:24.000Z,85.09
2019-05-12T02:11:24.000Z,85.10
2019-05-12T02:12:24.000Z,85.13
2019-05-12T02:13:24.000Z,84.96
2019-05-12T02:14:24.000Z,84.92
2019-05-12T02:15:24.000Z,85.05
2019-05-12T02:16:24.000Z,85.02
2019-05-12T02:17:24.000Z,85.11
2019-05-12T02:18:24.000Z,85.04
2019-05-12T02:19:24.000Z,85.16
2019-05-12T02:20:23.000Z,85.10
2019-05-12T02:21:23.000Z,85.04
2019-05-12T02:22:23.000Z,85.05
2019-05-12T02:23:23.000Z,85.19
2019-05-12T02:24:23.000Z,85.08
2019-05-12T02:25:23.000Z,85.21
2019-05-12T02:26:23.000Z,85.13
2019-05-12T02:27:23.000Z,85.20
2019-05-12T02:28:23.000Z,85.13
2019-05-12T02:29:23.000Z,85.13
2019-05-12T02:30:23.000Z,85.17
2019-05-12T02:31:23.000Z,85.03
2019-05-12T02:32:23.000Z,84.97
2019-05-12T02:33:23.000Z,84.91
2019-05-12T02:34:23.000Z,84.92
2019-05-12T02:35:23.000Z,84.80
2019-05-12T02:36:23.000Z,84.89
2019-05-12T02:37:23.000Z,84.90
2019-05-12T02:38:23.000Z,84.89
2019-05-12T02:39:23.000Z,84.97
2019-05-12T02:40:23.000Z,85.02
2019-05-12T02:41:23.000Z,84.92
2019-05-12T02:42:23.000Z,84.84
2019-05-12T02:43:23.000Z,84.85
2019-05-12T02:44:23.000Z,84.93
2019-05-12T02:45:23.000Z,84.88
2019-05-12T02:46:23.000Z,84.85
2019-05-12T02:47:23.000Z,84.80
2019-05-12T02:48:23.000Z,84.81
2019-05-12T02:49:23.000Z,84.75
2019-05-12T02:50:23.000Z,84.75
2019-05-12T02:51:23.000Z,84.70
2019-05-12T02:52:23.000Z,84.64
2019-05-12T02:53:23.000Z,84.67
2019-05-12T02:54:23.000Z,84.78
2019-05-12T02:55:23.000Z,84.72
2019-05-12T02:56:23.000Z,84.89
2019-05-12T02:57:23.000Z,84.79
2019-05-12T02:58:23.000Z,84.84
2019-05-12T02:59:23.000Z,84.76
2019-05-12T03:00:23.000Z,84.59
2019-05-12T03:01:23.000Z,84.81
2019-05-12T03:02:23.000Z,84.73
2019-05-12T03:03:23.000Z,84.77
2019-05-12T03:04:23.000Z,84.79
2019-05-12T03:05:23.000Z,84.79
2019-05-12T03:06:23.000Z,84.80
2019-05-12T03:07:23.000Z,84.72
2019-05-12T03:08:23.000Z,84.63
2019-05-12T03:09:23.000Z,84.52
2019-05-12T03:10:23.000Z,84.46
2019-05-12T03:11:23.000Z,84.41
2019-05-12T03:12:23.000Z,84.40
2019-05-12T03:13:23.000Z,84.36
2019-05-12T03:14:23.000Z,84.23
2019-05-12T03:15:23.000Z,84.38
2019-05-12T03:16:23.000Z,84.34
2019-05-12T03:17:23.000Z,84.41
2019-05-12T03:18:23.000Z,84.32
2019-05-12T03:19:23.000Z,84.39
2019-05-12T03:20:23.000Z,84.49
2019-05-12T03:21:23.000Z,84.51
2019-05-12T03:22:23.000Z,84.58
2019-05-12T03:23:23.000Z,84.58
2019-05-12T03:24:23.000Z,84.71
2019-05-12T03:25:23.000Z,84.75
2019-05-12T03:26:23.000Z,84.71
2019-05-12T03:27:23.000Z,84.73
2019-05-12T03:28:23.000Z,84.72
2019-05-12T03:29:23.000Z,84.83
2019-05-12T03:30:23.000Z,84.89
2019-05-12T03:31:23.000Z,84.77
2019-05-12T03:32:23.000Z,84.69
2019-05-12T03:33:23.000Z,84.74
2019-05-12T03:34:23.000Z,84.74
2019-05-12T03:35:23.000Z,84.80
2019-05-12T03:36:23.000Z,84.83
2019-05-12T03:37:23.000Z,85.16
2019-05-12T03:38:23.000Z,85.27
2019-05-12T03:39:23.000Z,85.18
2019-05-12T03:40:23.000Z,85.15
2019-05-12T03:41:23.000Z,85.64
2019-05-12T03:42:23.000Z,85.51
2019-05-12T03:43:23.000Z,85.95
2019-05-12T03:44:23.000Z,85.82
2019-05-12T03:45:23.000Z,85.89
2019-05-12T03:46:23.000Z,86.07
2019-05-12T03:47:23.000Z,86.56
2019-05-12T03:48:23.000Z,86.15
2019-05-12T03:49:23.000Z,86.07
2019-05-12T03:50:23.000Z,86.32
2019-05-12T03:51:23.000Z,86.61
2019-05-12T03:52:23.000Z,86.71
2019-05-12T03:53:23.000Z,86.43
2019-05-12T03:54:23.000Z,86.83
2019-05-12T03:55:23.000Z,86.74
2019-05-12T03:56:23.000Z,87.04
2019-05-12T03:57:23.000Z,86.79
2019-05-12T03:58:23.000Z,87.45
2019-05-12T03:59:23.000Z,86.86
2019-05-12T04:00:23.000Z,87.24
2019-05-12T04:01:23.000Z,87.14
2019-05-12T04:02:23.000Z,87.65
2019-05-12T04:03:23.000Z,87.49
2019-05-12T04:04:23.000Z,87.79
2019-05-12T04:05:23.000Z,87.57
2019-05-12T04:06:23.000Z,87.78
2019-05-12T04:07:23.000Z,87.71
2019-05-12T04:08:23.000Z,87.73
2019-05-12T04:09:23.000Z,87.36
2019-05-12T04:10:23.000Z,87.52
2019-05-12T04:11:23.000Z,87.46
2019-05-12T04:12:23.000Z,87.45
2019-05-12T04:13:23.000Z,87.38
2019-05-12T04:14:23.000Z,87.59
2019-05-12T04:15:23.000Z,88.02
2019-05-12T04:16:23.000Z,87.59
2019-05-12T04:17:23.000Z,87.55
2019-05-12T04:18:23.000Z,87.95
2019-05-12T04:19:23.000Z,88.00
2019-05-12T04:20:23.000Z,87.65
2019-05-12T04:21:23.000Z,87.71
2019-05-12T04:22:23.000Z,87.98
2019-05-12T04:23:23.000Z,88.63
2019-05-12T04:24:23.000Z,88.60
2019-05-12T04:25:23.000Z,88.69
2019-05-12T04:26:23.000Z,88.57
2019-05-12T04:27:23.000Z,88.88
2019-05-12T04:28:23.000Z,88.71
2019-05-12T04:29:24.000Z,88.86
2019-05-12T04:30:23.000Z,88.33
2019-05-12T04:31:23.000Z,88.80
2019-05-12T04:32:23.000Z,88.65
2019-05-12T04:33:23.000Z,89.21
2019-05-12T04:34:23.000Z,89.15
2019-05-12T04:35:23.000Z,89.21
2019-05-12T04:36:23.000Z,88.84
2019-05-12T04:37:23.000Z,88.80
2019-05-12T04:38:23.000Z,89.05
2019-05-12T04:39:23.000Z,88.89
2019-05-12T04:40:23.000Z,88.88
2019-05-12T04:41:23.000Z,89.66
2019-05-12T04:42:23.000Z,89.80
2019-05-12T04:43:23.000Z,89.44
2019-05-12T04:44:23.000Z,89.65
2019-05-12T04:45:23.000Z,89.68
2019-05-12T04:46:23.000Z,89.63
2019-05-12T04:47:23.000Z,90.06
2019-05-12T04:48:23.000Z,89.74
2019-05-12T04:49:23.000Z,89.60
2019-05-12T04:50:24.000Z,88.96
2019-05-12T04:51:24.000Z,88.93
2019-05-12T04:52:23.000Z,89.60
2019-05-12T04:53:23.000Z,89.64
2019-05-12T04:54:23.000Z,89.52
2019-05-12T04:55:23.000Z,89.40
2019-05-12T04:56:23.000Z,88.89
2019-05-12T04:57:23.000Z,88.74
2019-05-12T04:58:23.000Z,89.06
2019-05-12T04:59:23.000Z,88.33
2019-05-12T05:00:23.000Z,87.94
2019-05-12T05:01:23.000Z,88.51
2019-05-12T05:02:23.000Z,88.36
2019-05-12T05:03:23.000Z,88.53
2019-05-12T05:04:23.000Z,88.75
2019-05-12T05:05:23.000Z,88.72
2019-05-12T05:06:23.000Z,88.95
2019-05-12T05:07:23.000Z,88.51
2019-05-12T05:08:23.000Z,88.80
2019-05-12T05:09:23.000Z,88.97
2019-05-12T05:10:23.000Z,88.62
2019-05-12T05:11:23.000Z,88.75
2019-05-12T05:12:23.000Z,88.02
2019-05-12T05:13:23.000Z,88.55
2019-05-12T05:14:23.000Z,88.33
2019-05-12T05:15:23.000Z,87.17
2019-05-12T05:16:23.000Z,87.61
2019-05-12T05:17:23.000Z,87.87
2019-05-12T05:18:23.000Z,87.96
2019-05-12T05:19:23.000Z,87.95
2019-05-12T05:20:23.000Z,87.63
2019-05-12T05:21:23.000Z,87.17
2019-05-12T05:22:23.000Z,87.26
2019-05-12T05:23:23.000Z,86.62
2019-05-12T05:24:23.000Z,86.91
2019-05-12T05:25:23.000Z,86.38
2019-05-12T05:26:23.000Z,86.39
2019-05-12T05:27:23.000Z,86.56
2019-05-12T05:28:23.000Z,86.27
2019-05-12T05:29:23.000Z,86.36
2019-05-12T05:30:23.000Z,85.68
2019-05-12T05:31:23.000Z,86.14
2019-05-12T05:32:23.000Z,85.81
2019-05-12T05:33:23.000Z,85.86
2019-05-12T05:34:23.000Z,85.56
2019-05-12T05:35:23.000Z,85.37
2019-05-12T05:36:23.000Z,85.60
2019-05-12T05:37:23.000Z,85.37
2019-05-12T05:38:23.000Z,84.09
2019-05-12T05:39:23.000Z,85.12
2019-05-12T05:40:23.000Z,84.95
2019-05-12T05:41:23.000Z,84.87
2019-05-12T05:42:23.000Z,84.22
2019-05-12T05:43:23.000Z,84.83
2019-05-12T05:44:23.000Z,84.51
2019-05-12T05:45:23.000Z,84.95
2019-05-12T05:46:23.000Z,85.30
2019-05-12T05:47:23.000Z,84.66
2019-05-12T05:48:23.000Z,84.40
2019-05-12T05:49:23.000Z,84.23
2019-05-12T05:50:23.000Z,84.32
2019-05-12T05:51:23.000Z,84.33
2019-05-12T05:52:23.000Z,83.52
2019-05-12T05:53:23.000Z,83.48
2019-05-12T05:54:23.000Z,83.92
2019-05-12T05:55:23.000Z,83.23
2019-05-12T05:56:23.000Z,83.52
2019-05-12T05:57:23.000Z,83.44
2019-05-12T05:58:23.000Z,82.82
2019-05-12T05:59:23.000Z,83.50
2019-05-12T06:00:23.000Z,83.24
2019-05-12T06:01:23.000Z,83.14
2019-05-12T06:02:23.000Z,83.25
2019-05-12T06:03:23.000Z,83.48
2019-05-12T06:04:23.000Z,83.62
2019-05-12T06:05:23.000Z,83.25
2019-05-12T06:06:23.000Z,83.71
2019-05-12T06:07:23.000Z,83.05
2019-05-12T06:08:23.000Z,81.69
2019-05-12T06:09:23.000Z,82.56
2019-05-12T06:10:23.000Z,82.65
2019-05-12T06:11:23.000Z,82.22
2019-05-12T06:12:23.000Z,81.97
2019-05-12T06:13:23.000Z,81.62
2019-05-12T06:14:23.000Z,81.92
2019-05-12T06:15:23.000Z,81.96
2019-05-12T06:16:23.000Z,82.18
2019-05-12T06:17:23.000Z,81.22
2019-05-12T06:18:23.000Z,81.47
2019-05-12T06:19:23.000Z,81.36
2019-05-12T06:20:23.000Z,81.75
2019-05-12T06:21:23.000Z,81.84
2019-05-12T06:22:23.000Z,80.31
2019-05-12T06:23:23.000Z,80.71
2019-05-12T06:24:23.000Z,81.07
2019-05-12T06:25:23.000Z,80.77
2019-05-12T06:26:23.000Z,80.15
2019-05-12T06:27:23.000Z,79.85
2019-05-12T06:28:23.000Z,80.06
2019-05-12T06:29:23.000Z,80.25
2019-05-12T06:30:23.000Z,80.01
2019-05-12T06:31:23.000Z,79.96
2019-05-12T06:32:23.000Z,79.95
2019-05-12T06:33:23.000Z,78.99
2019-05-12T06:34:23.000Z,80.08
2019-05-12T06:35:23.000Z,79.76
2019-05-12T06:36:23.000Z,79.41
2019-05-12T06:37:23.000Z,79.95
2019-05-12T06:38:23.000Z,79.13
2019-05-12T06:39:23.000Z,79.84
2019-05-12T06:40:23.000Z,79.59
2019-05-12T06:41:23.000Z,78.98
2019-05-12T06:42:23.000Z,79.32
2019-05-12T06:43:23.000Z,79.10
2019-05-12T06:44:24.000Z,79.17
2019-05-12T06:45:23.000Z,78.14
2019-05-12T06:46:23.000Z,77.88
2019-05-12T06:47:23.000Z,78.25
2019-05-12T06:48:23.000Z,78.72
2019-05-12T06:49:23.000Z,78.06
2019-05-12T06:50:23.000Z,77.69
2019-05-12T06:51:23.000Z,77.65
2019-05-12T06:52:23.000Z,78.04
2019-05-12T06:53:23.000Z,77.75
2019-05-12T06:54:23.000Z,78.08
2019-05-12T06:55:23.000Z,78.29
2019-05-12T06:56:23.000Z,78.40
2019-05-12T06:57:23.000Z,78.39
2019-05-12T06:58:23.000Z,77.68
2019-05-12T06:59:23.000Z,76.98
2019-05-12T07:00:23.000Z,77.83
2019-05-12T07:01:23.000Z,76.51
2019-05-12T07:02:23.000Z,77.01
2019-05-12T07:03:23.000Z,76.47
2019-05-12T07:04:23.000Z,76.60
2019-05-12T07:05:23.000Z,75.43
2019-05-12T07:06:23.000Z,75.89
2019-05-12T07:07:23.000Z,76.40
2019-05-12T07:08:23.000Z,76.35
2019-05-12T07:09:23.000Z,76.51
2019-05-12T07:10:23.000Z,76.50
2019-05-12T07:11:23.000Z,76.33
2019-05-12T07:12:23.000Z,76.52
2019-05-12T07:13:23.000Z,76.12
2019-05-12T07:14:23.000Z,76.27
2019-05-12T07:15:23.000Z,75.73
2019-05-12T07:16:23.000Z,76.32
2019-05-12T07:17:23.000Z,76.00
2019-05-12T07:18:23.000Z,75.75
2019-05-12T07:19:23.000Z,76.33
2019-05-12T07:20:23.000Z,75.75
2019-05-12T07:21:23.000Z,76.04
2019-05-12T07:22:23.000Z,76.11
2019-05-12T07:23:23.000Z,76.47
2019-05-12T07:24:23.000Z,76.03
2019-05-12T07:25:23.000Z,75.63
2019-05-12T07:26:23.000Z,75.60
2019-05-12T07:27:23.000Z,75.82
2019-05-12T07:28:23.000Z,75.36
2019-05-12T07:29:23.000Z,75.45
2019-05-12T07:30:23.000Z,75.88
2019-05-12T07:31:23.000Z,75.64
2019-05-12T07:32:23.000Z,75.02
2019-05-12T07:33:23.000Z,74.90
2019-05-12T07:34:23.000Z,75.10
2019-05-12T07:35:23.000Z,75.07
2019-05-12T07:36:23.000Z,75.18
2019-05-12T07:37:23.000Z,75.07
2019-05-12T07:38:23.000Z,75.20
2019-05-12T07:39:23.000Z,74.77
2019-05-12T07:40:23.000Z,74.73
2019-05-12T07:41:23.000Z,74.57
2019-05-12T07:42:23.000Z,74.75
2019-05-12T07:43:23.000Z,74.28
2019-05-12T07:44:23.000Z,74.12
2019-05-12T07:45:23.000Z,73.52
2019-05-12T07:46:23.000Z,73.85
2019-05-12T07:47:23.000Z,74.72
2019-05-12T07:48:23.000Z,74.35
2019-05-12T07:49:23.000Z,74.57
2019-05-12T07:50:23.000Z,74.82
2019-05-12T07:51:23.000Z,74.65
2019-05-12T07:52:23.000Z,75.12
2019-05-12T07:53:23.000Z,74.74
2019-05-12T07:54:23.000Z,74.54
2019-05-12T07:55:23.000Z,74.79
2019-05-12T07:56:23.000Z,74.99
2019-05-12T07:57:23.000Z,74.24
2019-05-12T07:58:23.000Z,74.65
2019-05-12T07:59:23.000Z,74.75
2019-05-12T08:00:23.000Z,74.82
2019-05-12T08:01:23.000Z,75.07
2019-05-12T08:02:23.000Z,75.34
2019-05-12T08:03:23.000Z,74.50
2019-05-12T08:04:23.000Z,73.94
2019-05-12T08:05:23.000Z,73.03
2019-05-12T08:06:23.000Z,72.76
2019-05-12T08:07:23.000Z,72.42
2019-05-12T08:08:23.000Z,72.70
2019-05-12T08:09:23.000Z,72.97
2019-05-12T08:10:23.000Z,73.28
2019-05-12T08:11:23.000Z,74.20
2019-05-12T08:12:23.000Z,74.13
2019-05-12T08:13:23.000Z,73.88
2019-05-12T08:14:23.000Z,72.71
2019-05-12T08:15:23.000Z,72.40
2019-05-12T08:16:23.000Z,72.93
2019-05-12T08:17:23.000Z,73.32
2019-05-12T08:18:23.000Z,72.97
2019-05-12T08:19:23.000Z,72.72
2019-05-12T08:20:23.000Z,72.18
2019-05-12T08:21:23.000Z,72.46
2019-05-12T08:22:23.000Z,72.05
2019-05-12T08:23:23.000Z,72.45
2019-05-12T08:24:23.000Z,72.59
2019-05-12T08:25:23.000Z,72.75
2019-05-12T08:26:23.000Z,72.54
2019-05-12T08:27:23.000Z,73.23
2019-05-12T08:28:23.000Z,73.16
2019-05-12T08:29:23.000Z,72.32
2019-05-12T08:30:23.000Z,72.98
2019-05-12T08:31:23.000Z,73.25
2019-05-12T08:32:23.000Z,72.75
2019-05-12T08:33:23.000Z,72.30
2019-05-12T08:34:23.000Z,72.05
2019-05-12T08:35:23.000Z,72.05
2019-05-12T08:36:23.000Z,71.23
2019-05-12T08:37:23.000Z,71.52
2019-05-12T08:38:23.000Z,72.09
2019-05-12T08:39:23.000Z,71.83
2019-05-12T08:40:23.000Z,71.55
2019-05-12T08:41:23.000Z,71.89
2019-05-12T08:42:23.000Z,71.86
2019-05-12T08:43:23.000Z,71.99
2019-05-12T08:44:23.000Z,71.64
2019-05-12T08:45:23.000Z,72.41
2019-05-12T08:46:24.000Z,72.12
2019-05-12T08:47:23.000Z,72.14
2019-05-12T08:48:23.000Z,72.39
2019-05-12T08:49:23.000Z,72.12
2019-05-12T08:50:23.000Z,70.94
2019-05-12T08:51:23.000Z,71.36
2019-05-12T08:52:23.000Z,71.28
2019-05-12T08:53:23.000Z,72.09
2019-05-12T08:54:23.000Z,71.33
2019-05-12T08:55:22.000Z,72.07
2019-05-12T08:56:22.000Z,72.18
2019-05-12T08:57:22.000Z,72.05
2019-05-12T08:58:22.000Z,72.11
2019-05-12T08:59:22.000Z,72.08
2019-05-12T09:00:22.000Z,72.12
2019-05-12T09:01:22.000Z,71.91
2019-05-12T09:02:22.000Z,71.60
2019-05-12T09:03:22.000Z,71.29
2019-05-12T09:04:22.000Z,71.41
2019-05-12T09:05:22.000Z,71.36
2019-05-12T09:06:22.000Z,71.53
2019-05-12T09:07:22.000Z,71.69
2019-05-12T09:08:22.000Z,71.78
2019-05-12T09:09:22.000Z,72.22
2019-05-12T09:10:22.000Z,72.44
2019-05-12T09:11:22.000Z,71.65
2019-05-12T09:12:22.000Z,71.03
2019-05-12T09:13:22.000Z,72.05
2019-05-12T09:14:22.000Z,71.92
2019-05-12T09:15:22.000Z,71.93
2019-05-12T09:16:22.000Z,71.98
2019-05-12T09:17:22.000Z,72.12
2019-05-12T09:18:22.000Z,72.76
2019-05-12T09:19:22.000Z,72.19
2019-05-12T09:20:22.000Z,72.87
2019-05-12T09:21:22.000Z,72.21
2019-05-12T09:22:22.000Z,72.29
2019-05-12T09:23:23.000Z,72.12
2019-05-12T09:24:22.000Z,71.43
2019-05-12T09:25:23.000Z,72.37
2019-05-12T09:26:23.000Z,72.41
2019-05-12T09:27:23.000Z,72.53
2019-05-12T09:28:23.000Z,73.10
2019-05-12T09:29:23.000Z,72.57
2019-05-12T09:30:23.000Z,72.97
2019-05-12T09:31:23.000Z,72.75
2019-05-12T09:32:23.000Z,72.60
2019-05-12T09:33:23.000Z,71.29
2019-05-12T09:34:23.000Z,71.08
2019-05-12T09:35:23.000Z,71.29
2019-05-12T09:36:23.000Z,72.20
2019-05-12T09:37:23.000Z,71.72
2019-05-12T09:38:23.000Z,72.57
2019-05-12T09:39:24.000Z,71.73
2019-05-12T09:40:23.000Z,71.99
2019-05-12T09:41:23.000Z,71.83
2019-05-12T09:42:23.000Z,72.15
2019-05-12T09:43:23.000Z,71.60
2019-05-12T09:44:23.000Z,71.51
2019-05-12T09:45:23.000Z,71.19
2019-05-12T09:46:23.000Z,71.09
2019-05-12T09:47:23.000Z,70.87
2019-05-12T09:48:23.000Z,71.46
2019-05-12T09:49:23.000Z,71.69
2019-05-12T09:50:23.000Z,71.43
2019-05-12T09:51:23.000Z,71.43
2019-05-12T09:52:23.000Z,70.59
2019-05-12T09:53:23.000Z,71.13
2019-05-12T09:54:23.000Z,72.01
2019-05-12T09:55:23.000Z,72.10
2019-05-12T09:56:22.000Z,71.02
2019-05-12T09:57:24.000Z,71.19
2019-05-12T09:58:22.000Z,71.29
2019-05-12T09:59:22.000Z,70.98
2019-05-12T10:00:22.000Z,70.51
2019-05-12T10:01:22.000Z,70.28
2019-05-12T10:02:22.000Z,70.66
2019-05-12T10:03:22.000Z,70.51
2019-05-12T10:04:22.000Z,71.10
2019-05-12T10:05:22.000Z,71.07
2019-05-12T10:06:22.000Z,71.11
2019-05-12T10:07:22.000Z,70.17
2019-05-12T10:08:22.000Z,71.32
2019-05-12T10:09:23.000Z,71.06
2019-05-12T10:11:16.000Z,70.74
2019-05-12T10:12:16.000Z,70.41
2019-05-12T10:13:16.000Z,70.15
2019-05-12T10:14:17.000Z,69.79
2019-05-12T10:15:16.000Z,70.49
2019-05-12T10:16:16.000Z,71.16
2019-05-12T10:17:16.000Z,70.69
2019-05-12T10:18:16.000Z,70.14
2019-05-12T10:19:16.000Z,70.60
2019-05-12T10:20:16.000Z,70.24
2019-05-12T10:21:16.000Z,70.38
2019-05-12T10:22:16.000Z,70.01
2019-05-12T10:23:16.000Z,69.20
2019-05-12T10:24:16.000Z,69.58
2019-05-12T10:25:16.000Z,69.43
2019-05-12T10:26:16.000Z,69.65
2019-05-12T10:27:16.000Z,68.66
2019-05-12T10:28:16.000Z,68.96
2019-05-12T10:29:16.000Z,69.04
2019-05-12T10:30:16.000Z,68.86
2019-05-12T10:31:16.000Z,69.00
2019-05-12T10:32:16.000Z,68.03
2019-05-12T10:33:16.000Z,68.94
2019-05-12T10:34:16.000Z,68.33
2019-05-12T10:35:16.000Z,67.92
2019-05-12T10:36:16.000Z,68.72
2019-05-12T10:37:16.000Z,68.50
2019-05-12T10:38:16.000Z,68.93
2019-05-12T10:39:16.000Z,68.41
2019-05-12T10:40:16.000Z,67.59
2019-05-12T10:41:17.000Z,68.35
2019-05-12T10:42:17.000Z,68.02
2019-05-12T10:43:17.000Z,67.16
2019-05-12T10:44:17.000Z,66.96
2019-05-12T10:45:17.000Z,66.46
2019-05-12T10:46:17.000Z,66.94
2019-05-12T10:47:17.000Z,67.25
2019-05-12T10:48:17.000Z,66.98
2019-05-12T10:49:17.000Z,67.00
2019-05-12T10:50:17.000Z,66.30
2019-05-12T10:51:17.000Z,66.86
2019-05-12T10:52:17.000Z,66.61
2019-05-12T10:53:17.000Z,66.49
2019-05-12T10:54:17.000Z,66.21
2019-05-12T10:55:17.000Z,66.47
2019-05-12T10:56:17.000Z,67.10
2019-05-12T10:57:17.000Z,67.56
2019-05-12T10:58:17.000Z,67.73
2019-05-12T10:59:17.000Z,66.52
2019-05-12T11:00:17.000Z,66.62
2019-05-12T11:01:17.000Z,67.20
2019-05-12T11:02:17.000Z,67.22
2019-05-12T11:03:17.000Z,66.64
2019-05-12T11:04:17.000Z,67.08
2019-05-12T11:05:17.000Z,66.19
2019-05-12T11:06:17.000Z,66.33
2019-05-12T11:07:17.000Z,66.10
2019-05-12T11:08:17.000Z,66.17
2019-05-12T11:09:17.000Z,65.98
2019-05-12T11:10:17.000Z,66.23
2019-05-12T11:11:17.000Z,65.79
2019-05-12T11:12:16.000Z,65.85
2019-05-12T11:13:16.000Z,65.83
2019-05-12T11:14:16.000Z,65.88
2019-05-12T11:15:16.000Z,66.73
2019-05-12T11:16:16.000Z,66.22
2019-05-12T11:17:17.000Z,64.57
2019-05-12T11:18:16.000Z,63.70
2019-05-12T11:19:16.000Z,62.64
2019-05-12T11:20:16.000Z,62.73
2019-05-12T11:21:16.000Z,62.88
2019-05-12T11:22:16.000Z,64.07
2019-05-12T11:23:16.000Z,63.60
2019-05-12T11:24:16.000Z,62.43
2019-05-12T11:25:16.000Z,62.75
2019-05-12T11:26:16.000Z,62.92
2019-05-12T11:27:16.000Z,62.35
2019-05-12T11:28:16.000Z,61.50
2019-05-12T11:29:16.000Z,62.20
2019-05-12T11:30:16.000Z,61.82
2019-05-12T11:31:16.000Z,61.73
2019-05-12T11:32:16.000Z,61.99
2019-05-12T11:33:16.000Z,61.77
2019-05-12T11:34:16.000Z,61.04
2019-05-12T11:35:16.000Z,60.51
2019-05-12T11:36:16.000Z,60.59
2019-05-12T11:37:16.000Z,61.16
2019-05-12T11:38:16.000Z,61.57
2019-05-12T11:39:16.000Z,60.24
2019-05-12T11:40:16.000Z,60.71
2019-05-12T11:41:16.000Z,62.03
2019-05-12T11:42:16.000Z,60.55
2019-05-12T11:43:16.000Z,61.50
2019-05-12T11:44:17.000Z,60.80
2019-05-12T11:45:17.000Z,61.11
2019-05-12T11:46:16.000Z,60.45
2019-05-12T11:47:17.000Z,60.41
2019-05-12T11:48:17.000Z,59.90
2019-05-12T11:49:17.000Z,58.83
2019-05-12T11:50:16.000Z,59.14
2019-05-12T11:51:16.000Z,59.08
2019-05-12T11:52:16.000Z,59.58
2019-05-12T11:53:16.000Z,60.08
2019-05-12T11:54:17.000Z,59.49
2019-05-12T11:55:17.000Z,58.05
2019-05-12T11:56:16.000Z,57.82
2019-05-12T11:57:17.000Z,56.96
2019-05-12T11:58:17.000Z,56.93
2019-05-12T11:59:16.000Z,56.45
2019-05-12T12:00:17.000Z,56.95
2019-05-12T12:01:16.000Z,56.26
2019-05-12T12:02:17.000Z,56.27
2019-05-12T12:03:16.000Z,56.05
2019-05-12T12:04:16.000Z,56.38
2019-05-12T12:05:16.000Z,57.00
2019-05-12T12:06:16.000Z,56.23
2019-05-12T12:07:16.000Z,57.01
2019-05-12T12:08:17.000Z,57.50
2019-05-12T12:09:16.000Z,56.69
2019-05-12T12:10:16.000Z,57.05
2019-05-12T12:11:16.000Z,56.72
2019-05-12T12:12:16.000Z,57.75
2019-05-12T12:13:17.000Z,56.41
2019-05-12T12:14:17.000Z,56.02
2019-05-12T12:15:17.000Z,56.78
2019-05-12T12:16:17.000Z,57.04
2019-05-12T12:17:17.000Z,57.69
2019-05-12T12:18:17.000Z,56.69
2019-05-12T12:19:17.000Z,56.28
2019-05-12T12:20:17.000Z,55.83
2019-05-12T12:21:17.000Z,56.44
2019-05-12T12:22:17.000Z,55.88
2019-05-12T12:23:17.000Z,55.26
2019-05-12T12:24:17.000Z,54.83
2019-05-12T12:25:17.000Z,53.99
2019-05-12T12:26:17.000Z,54.14
2019-05-12T12:27:17.000Z,54.74
2019-05-12T12:28:17.000Z,54.89
2019-05-12T12:29:17.000Z,54.84
2019-05-12T12:30:17.000Z,54.86
2019-05-12T12:31:17.000Z,54.89
2019-05-12T12:32:17.000Z,56.58
2019-05-12T12:33:17.000Z,56.41
2019-05-12T12:34:17.000Z,56.85
2019-05-12T12:35:17.000Z,56.92
2019-05-12T12:36:17.000Z,56.55
2019-05-12T12:37:17.000Z,56.39
2019-05-12T12:38:17.000Z,56.80
2019-05-12T12:39:17.000Z,56.48
2019-05-12T12:40:17.000Z,56.31
2019-05-12T12:41:17.000Z,56.33
2019-05-12T12:42:17.000Z,55.16
2019-05-12T12:43:17.000Z,54.08
2019-05-12T12:44:16.000Z,54.89
2019-05-12T12:45:16.000Z,53.82
2019-05-12T12:46:16.000Z,53.56
2019-05-12T12:47:16.000Z,54.86
2019-05-12T12:48:16.000Z,54.46
2019-05-12T12:49:16.000Z,54.63
2019-05-12T12:50:16.000Z,53.75
2019-05-12T12:51:16.000Z,53.00
2019-05-12T12:52:16.000Z,52.35
2019-05-12T12:53:16.000Z,53.14